Time;durP1;ratioP1;P1;durP2;ratioP2;P2;SDS_P1;SDS_P2;PMS_P1;PMS_P2;Temp;Humidity;BMP_temperature;BMP_pressure;BME280_temperature;BME280_humidity;BME280_pressure;Samples;Min_cycle;Max_cycle;Signal;HPM_P1;HPM_P2
2021/03/23 00:01:51;;;;;;;13.20;7.35;;;;;;;8.15;75.92;101491.59;5011303;28;20180;-90
2021/03/23 00:04:16;;;;;;;9.30;6.45;;;;;;;8.17;77.34;101489.75;5013969;28;20022;-89
2021/03/23 00:06:41;;;;;;;8.77;5.88;;;;;;;8.15;77.73;101483.75;5013747;28;20026;-90
2021/03/23 00:09:07;;;;;;;13.52;6.53;;;;;;;8.27;76.49;101480.66;5013894;28;20192;-90
2021/03/23 00:11:36;;;;;;;9.77;6.65;;;;;;;8.19;78.13;101481.84;5017891;28;20037;-89
2021/03/23 00:14:04;;;;;;;13.15;7.10;;;;;;;8.28;76.65;101484.13;5038717;28;20022;-89
2021/03/23 00:16:34;;;;;;;9.20;6.00;;;;;;;8.32;77.29;101477.84;5038838;28;20048;-89
2021/03/23 00:19:00;;;;;;;14.77;7.63;;;;;;;8.32;77.27;101483.91;5039284;28;20022;-90
2021/03/23 00:21:26;;;;;;;9.07;6.03;;;;;;;8.38;76.39;101488.03;5039511;28;20022;-90
2021/03/23 00:23:53;;;;;;;17.90;6.40;;;;;;;8.36;76.79;101482.03;5038997;28;20009;-90
2021/03/23 00:26:19;;;;;;;8.82;5.75;;;;;;;8.40;76.72;101485.38;5020853;28;20105;-89
2021/03/23 00:28:47;;;;;;;9.65;5.78;;;;;;;8.38;77.56;101482.81;5014981;28;20018;-90
2021/03/23 00:31:18;;;;;;;9.02;5.50;;;;;;;8.34;77.93;101482.09;5014179;28;20029;-91
2021/03/23 00:33:43;;;;;;;8.57;5.43;;;;;;;8.37;77.83;101491.56;5010973;28;20038;-89
2021/03/23 00:36:10;;;;;;;8.55;5.75;;;;;;;8.28;78.39;101487.56;5013700;28;20124;-90
2021/03/23 00:38:39;;;;;;;11.32;6.15;;;;;;;8.34;77.75;101482.09;5013631;28;20503;-89
2021/03/23 00:41:06;;;;;;;8.90;5.60;;;;;;;8.36;78.73;101481.19;5012281;28;20033;-90
2021/03/23 00:43:32;;;;;;;8.90;5.78;;;;;;;8.36;78.20;101483.81;5013421;28;20022;-90
2021/03/23 00:45:57;;;;;;;9.32;5.63;;;;;;;8.33;78.10;101483.00;5013551;28;20113;-90
2021/03/23 00:48:23;;;;;;;7.90;5.28;;;;;;;8.38;77.45;101487.19;4995120;28;20030;-89
2021/03/23 00:50:49;;;;;;;7.00;4.95;;;;;;;8.36;77.15;101482.03;4992628;28;20022;-90
2021/03/23 00:53:14;;;;;;;8.32;5.20;;;;;;;8.27;77.75;101483.28;4994026;28;20089;-90
2021/03/23 00:55:40;;;;;;;12.07;5.13;;;;;;;8.29;77.07;101481.44;4994273;28;20031;-90
2021/03/23 00:58:05;;;;;;;7.50;4.60;;;;;;;8.29;76.79;101483.19;4993654;28;20038;-90
2021/03/23 01:00:31;;;;;;;13.27;6.32;;;;;;;8.21;77.60;101483.50;4993741;28;20030;-90
2021/03/23 01:02:58;;;;;;;6.68;4.80;;;;;;;8.19;77.16;101474.84;5009032;28;20030;-89
2021/03/23 01:05:28;;;;;;;6.43;3.95;;;;;;;8.19;76.46;101471.41;5013385;28;20101;-90
2021/03/23 01:07:54;;;;;;;5.95;4.35;;;;;;;8.14;77.31;101472.44;5012195;28;20026;-89
2021/03/23 01:10:21;;;;;;;9.75;4.43;;;;;;;8.16;76.82;101469.75;5011969;28;20451;-90
2021/03/23 01:12:47;;;;;;;4.25;3.83;;;;;;;8.14;76.55;101474.22;5011806;28;20037;-90
2021/03/23 01:15:17;;;;;;;6.80;4.60;;;;;;;8.03;75.95;101465.94;5013266;28;20364;-90
2021/03/23 01:17:42;;;;;;;8.30;5.25;;;;;;;7.94;77.42;101465.41;4995677;28;20516;-90
2021/03/23 01:20:10;;;;;;;4.68;4.10;;;;;;;7.91;76.38;101462.88;5011615;28;20029;-90
2021/03/23 01:22:37;;;;;;;5.95;4.10;;;;;;;7.88;76.50;101476.09;5011787;28;20026;-90
2021/03/23 01:25:03;;;;;;;5.47;4.00;;;;;;;7.83;76.08;101464.97;5012971;28;20084;-91
2021/03/23 01:27:28;;;;;;;7.38;4.60;;;;;;;7.80;76.25;101464.22;5012898;28;20034;-90
2021/03/23 01:29:54;;;;;;;11.52;3.88;;;;;;;7.78;76.17;101459.09;5012873;28;20473;-90
2021/03/23 01:32:19;;;;;;;7.80;4.80;;;;;;;7.73;77.06;101458.41;5012805;28;20030;-90
2021/03/23 01:34:46;;;;;;;7.60;3.90;;;;;;;7.75;76.74;101470.50;4994271;28;20516;-91
2021/03/23 01:37:12;;;;;;;7.35;4.22;;;;;;;7.79;76.32;101458.16;4992257;28;20026;-91
2021/03/23 01:39:38;;;;;;;8.23;4.28;;;;;;;7.75;76.60;101457.41;4993180;28;20058;-90
2021/03/23 01:42:04;;;;;;;6.65;4.50;;;;;;;7.80;76.63;101454.66;4993299;28;20081;-90
2021/03/23 01:44:30;;;;;;;5.43;4.75;;;;;;;7.67;76.77;101448.19;4991701;28;20025;-90
2021/03/23 01:46:55;;;;;;;5.90;4.22;;;;;;;7.63;76.70;101442.22;4993146;28;20037;-90
2021/03/23 01:49:34;;;;;;;7.90;4.40;;;;;;;7.62;76.54;101437.06;5008675;28;20080;-91
2021/03/23 01:52:05;;;;;;;5.00;4.38;;;;;;;7.48;76.84;101454.09;5011510;28;20026;-90
2021/03/23 01:54:35;;;;;;;6.47;4.65;;;;;;;7.52;76.50;101445.28;5012175;28;20026;-90
2021/03/23 01:57:04;;;;;;;6.90;4.20;;;;;;;7.50;77.09;101436.63;5011777;28;20030;-89
2021/03/23 01:59:35;;;;;;;5.93;4.43;;;;;;;7.44;77.09;101442.06;5016399;28;20041;-91
2021/03/23 02:02:02;;;;;;;7.78;4.97;;;;;;;7.35;77.10;101438.06;5017620;28;20030;-91
2021/03/23 02:04:28;;;;;;;6.82;5.03;;;;;;;7.41;77.76;101436.97;4995319;28;20088;-90
2021/03/23 02:06:53;;;;;;;6.07;4.65;;;;;;;7.35;77.03;101427.59;4991606;28;20117;-91
2021/03/23 02:09:23;;;;;;;6.82;4.53;;;;;;;7.38;76.49;101431.84;4991793;28;20023;-91
2021/03/23 02:11:54;;;;;;;7.50;4.78;;;;;;;7.32;76.82;101413.81;4991722;28;20049;-91
2021/03/23 02:14:21;;;;;;;5.13;4.53;;;;;;;7.31;77.19;101433.03;4992432;28;20465;-91
2021/03/23 02:16:47;;;;;;;5.50;4.65;;;;;;;7.33;78.04;101429.44;4992762;28;20127;-91
2021/03/23 02:19:16;;;;;;;6.28;4.57;;;;;;;7.43;77.24;101414.25;4994754;28;20157;-90
2021/03/23 02:21:41;;;;;;;4.95;4.13;;;;;;;7.35;77.07;101424.16;5012323;28;20040;-91
2021/03/23 02:24:07;;;;;;;5.78;4.50;;;;;;;7.17;76.42;101422.22;5012336;28;20405;-91
2021/03/23 02:26:35;;;;;;;8.35;4.78;;;;;;;7.14;76.97;101423.19;5012237;28;20026;-90
2021/03/23 02:29:02;;;;;;;7.85;5.40;;;;;;;7.19;76.99;101417.78;5010982;28;20119;-90
2021/03/23 02:31:35;;;;;;;8.88;4.93;;;;;;;7.12;76.24;101415.41;5012244;28;20116;-91
2021/03/23 02:34:03;;;;;;;6.20;4.78;;;;;;;7.22;76.17;101421.13;5009005;28;20048;-91
2021/03/23 02:36:29;;;;;;;4.55;4.15;;;;;;;7.27;75.85;101413.16;4993468;28;20112;-90
2021/03/23 02:38:55;;;;;;;7.10;4.43;;;;;;;7.22;76.36;101418.53;5009186;28;20033;-90
2021/03/23 02:41:21;;;;;;;4.90;4.40;;;;;;;7.17;76.26;101414.38;5012117;28;20380;-90
2021/03/23 02:43:47;;;;;;;5.68;4.07;;;;;;;7.14;76.21;101416.19;5012210;28;20028;-90
2021/03/23 02:46:13;;;;;;;5.25;4.53;;;;;;;7.05;76.20;101419.19;5010493;28;20044;-90
2021/03/23 02:48:38;;;;;;;7.90;4.75;;;;;;;6.84;78.11;101417.34;5010743;28;20033;-90
2021/03/23 02:51:04;;;;;;;6.57;4.53;;;;;;;6.98;77.70;101415.06;5011865;28;20492;-90
2021/03/23 02:53:30;;;;;;;6.55;4.60;;;;;;;7.01;77.66;101417.59;5010058;28;20491;-90
2021/03/23 02:55:55;;;;;;;6.35;4.28;;;;;;;7.17;76.92;101412.66;5010822;28;20046;-90
2021/03/23 02:58:20;;;;;;;7.28;4.72;;;;;;;7.06;78.63;101414.78;5010417;28;20113;-89
2021/03/23 03:00:46;;;;;;;6.60;5.55;;;;;;;7.22;78.53;101415.06;5011643;28;20095;-90
2021/03/23 03:03:12;;;;;;;5.88;4.80;;;;;;;7.32;78.46;101400.75;5010356;28;20446;-90
2021/03/23 03:05:38;;;;;;;8.35;5.72;;;;;;;7.43;77.75;101411.66;5011856;28;20036;-90
2021/03/23 03:08:04;;;;;;;6.60;5.15;;;;;;;7.38;78.39;101413.56;5011369;28;20030;-90
2021/03/23 03:10:29;;;;;;;6.43;4.57;;;;;;;7.46;78.63;101410.66;4996231;28;20031;-90
2021/03/23 03:12:57;;;;;;;4.90;4.05;;;;;;;7.55;78.21;101410.31;4990860;28;20405;-90
2021/03/23 03:15:23;;;;;;;6.00;4.55;;;;;;;7.65;78.52;101405.56;4993127;28;20023;-91
2021/03/23 03:17:48;;;;;;;9.48;5.00;;;;;;;7.81;79.00;101397.97;4991850;28;20023;-91
2021/03/23 03:20:16;;;;;;;6.25;5.05;;;;;;;7.87;79.28;101390.72;5001119;28;20051;-91
2021/03/23 03:22:42;;;;;;;5.82;4.65;;;;;;;8.00;78.89;101398.91;5010388;28;20036;-91
2021/03/23 03:25:09;;;;;;;6.07;4.57;;;;;;;8.01;79.12;101395.38;5010288;28;20018;-91
2021/03/23 03:27:35;;;;;;;8.45;5.47;;;;;;;8.12;78.87;101394.94;5015052;28;20109;-91
2021/03/23 03:30:01;;;;;;;5.85;3.90;;;;;;;8.32;77.89;101400.19;5013878;28;20053;-90
2021/03/23 03:32:26;;;;;;;5.47;4.75;;;;;;;8.28;77.74;101393.38;5014029;28;20025;-91
2021/03/23 03:34:52;;;;;;;5.72;4.47;;;;;;;8.33;77.75;101395.78;5012432;28;20460;-91
2021/03/23 03:37:17;;;;;;;6.35;4.40;;;;;;;8.43;77.17;101396.28;5003223;28;20026;-91
2021/03/23 03:39:43;;;;;;;5.93;4.72;;;;;;;8.55;76.15;101395.78;4994476;28;20068;-91
2021/03/23 03:42:09;;;;;;;6.72;4.90;;;;;;;8.50;75.97;101379.41;5007130;28;20026;-90
2021/03/23 03:44:34;;;;;;;5.30;3.90;;;;;;;8.65;76.30;101391.81;5003285;28;20022;-91
2021/03/23 03:47:00;;;;;;;6.93;4.45;;;;;;;8.50;76.38;101392.47;4994211;28;20034;-91
2021/03/23 03:49:25;;;;;;;4.85;4.15;;;;;;;8.68;75.26;101390.81;5016194;28;20315;-90
2021/03/23 03:51:50;;;;;;;4.03;3.50;;;;;;;8.69;75.16;101382.91;5021263;28;20006;-91
2021/03/23 03:54:16;;;;;;;6.75;3.85;;;;;;;8.70;75.27;101389.81;5029175;23;20073;-85
2021/03/23 03:56:41;;;;;;;5.10;3.55;;;;;;;8.89;73.71;101387.25;5014610;28;20562;-85
2021/03/23 03:59:07;;;;;;;5.78;3.47;;;;;;;8.96;74.42;101390.44;5014526;28;20025;-85
2021/03/23 04:01:32;;;;;;;10.00;4.13;;;;;;;8.90;72.75;101380.22;5014792;28;20026;-86
2021/03/23 04:03:57;;;;;;;5.03;3.55;;;;;;;9.10;73.08;101382.81;5014485;28;20037;-85
2021/03/23 04:06:23;;;;;;;5.30;4.07;;;;;;;9.16;72.66;101375.56;5013965;28;20033;-86
2021/03/23 04:08:48;;;;;;;4.63;4.10;;;;;;;9.20;72.64;101382.38;5014451;28;20056;-86
2021/03/23 04:11:14;;;;;;;4.10;3.70;;;;;;;9.24;71.83;101381.28;5014339;28;20407;-87
2021/03/23 04:13:39;;;;;;;6.70;4.10;;;;;;;9.32;71.28;101380.03;5014355;28;20374;-86
2021/03/23 04:16:05;;;;;;;10.20;4.18;;;;;;;9.22;71.43;101372.66;5013025;28;20044;-87
2021/03/23 04:18:30;;;;;;;7.88;4.72;;;;;;;9.25;71.41;101375.16;5014043;28;20030;-87
2021/03/23 04:20:59;;;;;;;8.48;4.50;;;;;;;9.18;72.02;101369.31;5010403;28;20026;-86
2021/03/23 04:23:27;;;;;;;5.25;4.07;;;;;;;9.26;72.11;101376.84;4994614;28;20404;-86
2021/03/23 04:25:53;;;;;;;6.10;4.10;;;;;;;9.25;72.04;101367.28;4994547;28;20084;-86
2021/03/23 04:28:18;;;;;;;7.20;4.60;;;;;;;9.19;71.87;101367.56;4994481;28;20026;-86
2021/03/23 04:30:45;;;;;;;9.93;4.32;;;;;;;9.22;71.85;101373.53;4994505;28;20027;-87
2021/03/23 04:33:10;;;;;;;7.45;5.00;;;;;;;9.22;71.31;101373.53;4994437;28;20157;-86
2021/03/23 04:35:43;;;;;;;6.30;4.13;;;;;;;9.26;71.26;101367.22;4995961;28;20105;-86
2021/03/23 04:38:12;;;;;;;7.20;4.40;;;;;;;9.02;73.93;101373.59;5012068;28;20037;-86
2021/03/23 04:40:38;;;;;;;7.05;4.72;;;;;;;9.15;72.79;101364.25;5013584;28;20096;-87
2021/03/23 04:43:05;;;;;;;4.78;4.38;;;;;;;9.17;73.09;101366.81;5013872;28;20029;-87
2021/03/23 04:45:31;;;;;;;7.38;4.50;;;;;;;9.27;72.34;101375.94;5013844;28;20523;-86
2021/03/23 04:47:56;;;;;;;8.13;4.70;;;;;;;9.23;72.01;101371.75;5013716;28;20116;-87
2021/03/23 04:50:22;;;;;;;8.00;4.40;;;;;;;9.24;72.14;101373.44;5013763;28;20502;-87
2021/03/23 04:52:47;;;;;;;6.70;4.47;;;;;;;9.24;72.18;101376.06;5011960;28;20037;-86
2021/03/23 04:55:14;;;;;;;5.75;4.72;;;;;;;9.25;73.07;101375.16;5012427;28;20030;-86
2021/03/23 04:57:40;;;;;;;7.07;4.85;;;;;;;9.10;73.67;101371.47;5012122;28;20448;-86
2021/03/23 05:00:09;;;;;;;7.72;4.32;;;;;;;9.12;73.69;101370.50;5012129;28;20167;-86
2021/03/23 05:02:35;;;;;;;5.40;4.50;;;;;;;9.13;73.97;101366.94;5012204;28;20033;-86
2021/03/23 05:05:00;;;;;;;5.55;4.20;;;;;;;9.22;73.84;101375.28;5013558;28;20026;-86
2021/03/23 05:07:25;;;;;;;7.28;4.35;;;;;;;9.25;73.79;101362.03;5013384;28;20472;-86
2021/03/23 05:09:51;;;;;;;7.90;4.68;;;;;;;9.29;73.06;101361.81;5010076;28;20030;-86
2021/03/23 05:12:17;;;;;;;5.43;4.18;;;;;;;9.25;73.38;101362.03;5013211;28;20111;-86
2021/03/23 05:14:42;;;;;;;5.60;3.53;;;;;;;9.24;73.26;101362.97;5013207;28;20030;-87
2021/03/23 05:17:09;;;;;;;4.55;4.07;;;;;;;9.13;73.27;101356.44;5011864;28;20034;-86
2021/03/23 05:19:35;;;;;;;5.45;4.20;;;;;;;9.08;72.96;101358.47;5013198;28;20032;-86
2021/03/23 05:22:01;;;;;;;4.53;3.90;;;;;;;9.07;73.59;101356.75;5013155;28;20022;-86
2021/03/23 05:24:26;;;;;;;5.95;3.95;;;;;;;9.02;73.05;101357.88;4998943;28;20033;-86
2021/03/23 05:26:52;;;;;;;4.65;4.25;;;;;;;9.01;72.98;101351.78;4991978;28;20033;-86
2021/03/23 05:29:17;;;;;;;5.45;3.97;;;;;;;9.04;73.33;101359.50;4992117;28;20457;-86
2021/03/23 05:31:42;;;;;;;5.43;4.03;;;;;;;9.02;73.30;101358.72;4993312;28;20026;-86
2021/03/23 05:34:11;;;;;;;4.95;4.45;;;;;;;8.93;74.18;101356.53;4993157;28;20053;-86
2021/03/23 05:36:37;;;;;;;5.22;4.43;;;;;;;9.03;73.83;101359.59;4993241;28;20019;-86
2021/03/23 05:39:03;;;;;;;7.72;4.15;;;;;;;9.09;74.11;101365.38;5005536;28;20037;-86
2021/03/23 05:41:56;;;;;;;5.63;4.60;;;;;;;9.13;73.33;101361.69;5009655;28;20049;-86
2021/03/23 05:44:46;;;;;;;6.00;4.38;;;;;;;9.17;73.15;101359.78;5012687;28;20079;-86
2021/03/23 05:47:16;;;;;;;5.32;4.18;;;;;;;9.20;73.44;101364.03;5012608;28;20382;-86
2021/03/23 05:50:14;;;;;;;4.80;4.30;;;;;;;9.20;73.38;101371.88;5011994;28;20029;-86
2021/03/23 05:53:00;;;;;;;5.82;4.35;;;;;;;9.26;73.89;101372.47;5012886;28;20524;-86
2021/03/23 05:55:33;;;;;;;4.22;3.75;;;;;;;9.27;74.33;101366.28;5003575;28;20041;-86
2021/03/23 05:58:00;;;;;;;4.68;3.70;;;;;;;9.33;73.20;101357.28;4991611;28;20033;-86
2021/03/23 06:00:35;;;;;;;5.45;4.45;;;;;;;9.35;72.15;101365.94;4991508;28;20038;-86
2021/03/23 06:03:26;;;;;;;6.00;4.63;;;;;;;9.36;72.53;101370.25;4992905;28;20033;-85
2021/03/23 06:06:22;;;;;;;5.80;4.30;;;;;;;9.33;72.83;101365.16;4992619;28;20026;-86
2021/03/23 06:08:50;;;;;;;5.55;4.57;;;;;;;9.35;71.95;101360.69;4991417;28;20052;-86
2021/03/23 06:11:41;;;;;;;6.80;4.93;;;;;;;9.46;72.87;101361.03;5009006;28;20121;-85
2021/03/23 06:14:28;;;;;;;5.72;4.32;;;;;;;9.49;72.17;101360.88;5012191;28;20026;-86
2021/03/23 06:17:12;;;;;;;6.65;4.53;;;;;;;9.48;73.12;101366.22;5012189;28;20124;-86
2021/03/23 06:20:16;;;;;;;5.15;4.15;;;;;;;9.49;72.68;101362.66;5010388;28;20083;-86
2021/03/23 06:22:47;;;;;;;7.20;4.47;;;;;;;9.51;72.95;101371.28;5011351;28;20080;-85
2021/03/23 06:25:34;;;;;;;8.95;4.35;;;;;;;9.56;72.37;101369.31;5010788;28;20037;-86
2021/03/23 06:28:27;;;;;;;6.72;4.60;;;;;;;9.62;72.87;101370.78;5012145;28;20526;-86
2021/03/23 06:31:05;;;;;;;5.60;4.22;;;;;;;9.68;72.52;101375.72;5011661;28;20038;-86
2021/03/23 06:33:32;;;;;;;11.27;4.75;;;;;;;9.73;71.82;101377.22;5010687;28;20036;-86
2021/03/23 06:36:09;;;;;;;7.75;5.55;;;;;;;9.57;72.38;101375.38;5010548;28;20369;-86
2021/03/23 06:38:41;;;;;;;6.90;4.72;;;;;;;9.63;71.39;101375.09;5010860;28;20543;-86
2021/03/23 06:41:24;;;;;;;7.60;4.97;;;;;;;9.70;71.48;101373.88;5010731;28;20030;-86
2021/03/23 06:43:58;;;;;;;7.35;4.18;;;;;;;9.77;71.14;101377.03;5010530;28;20108;-86
2021/03/23 06:46:33;;;;;;;6.13;5.13;;;;;;;9.70;71.94;101377.34;4993793;28;20033;-86
2021/03/23 06:49:06;;;;;;;5.25;4.55;;;;;;;9.80;72.03;101387.41;5008611;28;20065;-86
2021/03/23 06:51:32;;;;;;;6.38;4.75;;;;;;;9.83;70.63;101367.06;5010375;28;20018;-86
2021/03/23 06:56:44;;;;;;;9.98;5.32;;;;;;;9.92;69.87;101377.13;4991105;28;20061;-92
2021/03/23 06:59:12;;;;;;;6.50;4.88;;;;;;;9.91;71.19;101375.44;4991709;28;20081;-92
2021/03/23 07:01:42;;;;;;;7.22;4.68;;;;;;;9.94;71.51;101374.44;4994033;28;20026;-91
2021/03/23 07:04:16;;;;;;;5.53;4.57;;;;;;;9.99;71.29;101376.81;4997708;28;20026;-92
2021/03/23 07:06:42;;;;;;;5.20;4.47;;;;;;;9.87;71.02;101373.91;4971980;28;20055;-92
2021/03/23 07:09:19;;;;;;;6.38;5.18;;;;;;;9.96;72.49;101374.38;4968166;28;20083;-92
2021/03/23 07:11:52;;;;;;;5.45;4.68;;;;;;;10.07;71.26;101379.91;4997655;28;20036;-91
2021/03/23 07:14:27;;;;;;;5.70;4.80;;;;;;;10.08;71.45;101366.72;4979566;28;20062;-90
2021/03/23 07:17:22;;;;;;;6.13;5.30;;;;;;;10.16;71.38;101376.81;4988386;28;20019;-90
2021/03/23 07:19:54;;;;;;;6.13;4.80;;;;;;;10.21;70.54;101379.22;4997294;28;20020;-90
2021/03/23 07:22:29;;;;;;;7.22;5.00;;;;;;;10.32;69.98;101369.88;4979705;28;20019;-91
2021/03/23 07:24:57;;;;;;;6.57;4.97;;;;;;;10.38;68.77;101375.75;4978977;28;20050;-90
2021/03/23 07:27:26;;;;;;;5.18;4.68;;;;;;;10.52;68.72;101375.88;4977916;28;20022;-92
2021/03/23 07:30:20;;;;;;;6.15;4.90;;;;;;;10.58;66.18;101378.19;4984569;28;20023;-92
2021/03/23 07:32:50;;;;;;;6.75;4.63;;;;;;;10.67;66.27;101375.09;4975935;28;20076;-92
2021/03/23 07:35:31;;;;;;;6.15;4.57;;;;;;;10.68;66.21;101382.06;4976428;28;20015;-91
2021/03/23 07:38:23;;;;;;;9.45;5.35;;;;;;;10.69;62.95;101373.22;4976148;28;20113;-91
2021/03/23 07:40:52;;;;;;;5.15;4.45;;;;;;;10.87;63.64;101389.78;4958436;28;20042;-92
2021/03/23 07:43:32;;;;;;;8.25;4.50;;;;;;;10.87;62.89;101381.91;4986890;28;20069;-91
2021/03/23 07:46:18;;;;;;;10.18;5.63;;;;;;;10.95;62.62;101389.38;4973794;28;20031;-91
2021/03/23 07:49:06;;;;;;;5.28;4.50;;;;;;;11.03;62.30;101381.91;4982918;28;20027;-91
2021/03/23 07:51:33;;;;;;;5.18;4.40;;;;;;;11.05;61.90;101373.97;4980343;28;20089;-90
2021/03/23 07:54:28;;;;;;;5.47;4.15;;;;;;;11.05;60.91;101379.22;4972820;28;20110;-92
2021/03/23 07:57:10;;;;;;;6.82;5.22;;;;;;;11.04;61.24;101386.25;4977540;28;20484;-90
2021/03/23 07:59:57;;;;;;;11.63;5.75;;;;;;;10.99;61.97;101385.66;4973335;28;20501;-91
2021/03/23 08:02:36;;;;;;;4.97;4.47;;;;;;;11.24;61.00;101384.34;4994653;28;20161;-91
2021/03/23 08:05:40;;;;;;;7.55;4.90;;;;;;;11.26;60.66;101382.47;4961832;28;20039;-90
2021/03/23 08:08:11;;;;;;;6.60;5.07;;;;;;;11.31;61.83;101383.03;4983947;28;20074;-90
2021/03/23 08:10:55;;;;;;;7.22;5.07;;;;;;;11.37;61.51;101373.97;4962083;28;20122;-90
2021/03/23 08:13:33;;;;;;;6.65;5.18;;;;;;;11.51;60.20;101384.56;4966177;28;20393;-90
2021/03/23 08:16:11;;;;;;;10.13;5.72;;;;;;;11.56;59.78;101385.16;4973007;28;20035;-90
2021/03/23 08:18:51;;;;;;;5.90;5.10;;;;;;;11.55;59.77;101385.22;4969146;28;20049;-91
2021/03/23 08:21:40;;;;;;;7.55;4.68;;;;;;;11.68;59.44;101388.88;4984425;28;20035;-91
2021/03/23 08:24:27;;;;;;;5.82;4.82;;;;;;;11.73;59.53;101381.56;4984065;28;20473;-90
2021/03/23 08:27:07;;;;;;;6.47;4.93;;;;;;;11.84;59.52;101384.41;4975472;28;20039;-90
2021/03/23 08:29:33;;;;;;;5.22;4.72;;;;;;;11.86;59.49;101382.53;4987883;28;20022;-90
2021/03/23 08:32:37;;;;;;;12.50;6.03;;;;;;;11.80;59.47;101377.63;4977329;28;20031;-91
2021/03/23 08:35:35;;;;;;;9.98;5.88;;;;;;;11.93;59.40;101377.81;4975538;28;20033;-90
2021/03/23 08:38:08;;;;;;;7.35;5.22;;;;;;;11.83;59.80;101382.75;4991072;28;20094;-90
2021/03/23 08:40:46;;;;;;;8.77;6.15;;;;;;;11.88;59.26;101380.66;5000983;28;20039;-90
2021/03/23 08:43:23;;;;;;;9.63;5.57;;;;;;;12.00;58.97;101373.03;4992836;28;20026;-92
2021/03/23 08:45:50;;;;;;;6.50;5.18;;;;;;;12.09;58.43;101368.09;4965155;28;20371;-91
2021/03/23 08:48:34;;;;;;;9.35;5.45;;;;;;;12.20;58.93;101367.44;4960657;28;20027;-90
2021/03/23 08:51:04;;;;;;;8.48;5.60;;;;;;;12.13;58.16;101363.50;4961316;28;20030;-89
2021/03/23 08:53:33;;;;;;;9.00;5.55;;;;;;;12.17;58.52;101372.91;4991764;28;20125;-91
2021/03/23 08:56:00;;;;;;;7.38;4.60;;;;;;;12.30;58.23;101365.09;4986839;28;20126;-92
2021/03/23 08:58:38;;;;;;;8.18;5.35;;;;;;;12.26;58.60;101367.09;4985897;28;20038;-91
2021/03/23 09:01:06;;;;;;;6.47;5.10;;;;;;;12.39;58.32;101374.25;4980365;28;20031;-93
2021/03/23 09:03:44;;;;;;;12.80;5.40;;;;;;;12.51;57.91;101373.50;4994536;28;20115;-92
2021/03/23 09:06:15;;;;;;;7.35;5.22;;;;;;;12.55;58.31;101375.00;4988877;28;20057;-92
2021/03/23 09:09:14;;;;;;;7.30;5.55;;;;;;;12.63;57.59;101377.19;4995612;28;20038;-92
2021/03/23 09:12:17;;;;;;;7.93;5.07;;;;;;;12.67;57.15;101374.25;4993937;28;20023;-92
2021/03/23 09:15:16;;;;;;;10.75;5.38;;;;;;;12.74;57.32;101380.00;4984242;28;20070;-91
2021/03/23 09:17:49;;;;;;;7.25;5.38;;;;;;;12.78;57.14;101381.50;4974583;28;20027;-92
2021/03/23 09:20:38;;;;;;;7.22;5.32;;;;;;;12.95;56.83;101376.97;4984876;28;20033;-91
2021/03/23 09:23:23;;;;;;;7.05;5.63;;;;;;;13.14;56.18;101382.78;4973594;28;20034;-91
2021/03/23 09:25:59;;;;;;;7.68;5.88;;;;;;;13.21;55.38;101385.88;4976683;28;20149;-92
2021/03/23 09:28:33;;;;;;;10.82;5.65;;;;;;;13.14;56.07;101379.31;4980097;28;20038;-91
2021/03/23 09:31:03;;;;;;;8.65;5.20;;;;;;;13.34;55.95;101384.19;4975784;28;20045;-90
2021/03/23 09:33:31;;;;;;;11.65;6.72;;;;;;;13.36;55.55;101387.56;4985136;28;20422;-91
2021/03/23 09:36:10;;;;;;;8.35;5.60;;;;;;;13.44;55.64;101382.66;4954367;28;20031;-90
2021/03/23 09:38:40;;;;;;;13.27;6.05;;;;;;;13.45;56.42;101389.63;4972468;28;20018;-91
2021/03/23 09:41:32;;;;;;;11.55;5.75;;;;;;;13.56;55.75;101378.38;4982807;28;20022;-91
2021/03/23 09:44:00;;;;;;;8.30;6.90;;;;;;;13.49;56.61;101382.38;4972591;28;20157;-90
2021/03/23 09:46:28;;;;;;;6.60;5.60;;;;;;;13.45;57.44;101397.56;4972207;28;20031;-90
2021/03/23 09:49:11;;;;;;;8.23;6.38;;;;;;;13.26;56.74;101397.00;4977718;28;20022;-91
2021/03/23 09:51:45;;;;;;;10.55;6.20;;;;;;;13.44;56.09;101401.13;4979060;28;20030;-91
2021/03/23 09:57:03;;;;;;;10.00;7.53;;;;;;;12.98;58.48;101395.25;5007218;28;20501;-85
2021/03/23 09:59:32;;;;;;;10.80;6.90;;;;;;;13.41;56.58;101390.78;4995855;28;20077;-85
2021/03/23 10:02:19;;;;;;;10.65;7.20;;;;;;;13.61;55.82;101391.28;5006970;28;20057;-85
2021/03/23 10:04:46;;;;;;;10.18;7.68;;;;;;;13.67;55.04;101391.72;5005149;28;20155;-85
2021/03/23 10:07:28;;;;;;;10.60;7.65;;;;;;;13.58;55.37;101388.84;4992859;28;20035;-84
2021/03/23 10:09:54;;;;;;;9.95;7.90;;;;;;;13.39;55.11;101390.03;4995966;28;20060;-84
2021/03/23 10:12:28;;;;;;;11.90;8.27;;;;;;;13.48;55.93;101392.06;4992325;28;20458;-85
2021/03/23 10:14:54;;;;;;;10.15;8.00;;;;;;;13.62;56.45;101398.25;4992199;28;20166;-85
2021/03/23 10:17:28;;;;;;;9.60;7.65;;;;;;;13.98;52.88;101381.78;4995947;28;20030;-85
2021/03/23 10:19:58;;;;;;;11.95;8.55;;;;;;;13.95;53.32;101392.53;4992021;28;20080;-85
2021/03/23 10:22:31;;;;;;;10.30;7.73;;;;;;;13.94;54.72;101385.59;4992213;28;20397;-85
2021/03/23 10:24:59;;;;;;;12.23;7.63;;;;;;;13.84;53.80;101377.44;4992087;28;20109;-85
2021/03/23 10:27:34;;;;;;;9.95;7.78;;;;;;;14.01;52.71;101386.00;5001257;28;20079;-85
2021/03/23 10:30:13;;;;;;;9.45;7.82;;;;;;;14.34;53.28;101380.25;4995858;28;20395;-85
2021/03/23 10:32:42;;;;;;;14.20;7.88;;;;;;;14.44;49.79;101378.66;4992267;28;20027;-85
2021/03/23 10:35:11;;;;;;;10.15;7.18;;;;;;;14.06;50.70;101371.56;4992563;28;20030;-84
2021/03/23 10:37:36;;;;;;;11.45;8.02;;;;;;;14.37;48.79;101374.75;4992065;28;20393;-84
2021/03/23 10:40:05;;;;;;;10.95;8.57;;;;;;;13.86;51.74;101375.53;4998366;28;20034;-84
2021/03/23 10:42:33;;;;;;;13.30;8.40;;;;;;;13.47;52.87;101366.63;4995497;28;20038;-84
2021/03/23 10:45:22;;;;;;;11.88;9.00;;;;;;;14.13;50.71;101371.97;4993961;28;20041;-84
2021/03/23 10:48:00;;;;;;;15.02;8.20;;;;;;;13.84;52.19;101366.00;4992035;28;20042;-84
2021/03/23 10:50:28;;;;;;;12.35;9.00;;;;;;;13.79;53.87;101363.69;4992213;28;20034;-84
2021/03/23 10:53:26;;;;;;;10.43;8.25;;;;;;;14.31;51.38;101363.75;4992135;28;20543;-84
2021/03/23 10:55:52;;;;;;;13.05;8.40;;;;;;;14.57;49.34;101357.53;4992461;28;20026;-84
2021/03/23 10:58:19;;;;;;;13.02;9.45;;;;;;;14.09;50.74;101368.69;4991946;28;20065;-84
2021/03/23 11:00:47;;;;;;;12.70;8.82;;;;;;;13.72;52.33;101357.09;5007009;28;20068;-84
2021/03/23 11:03:12;;;;;;;13.30;9.82;;;;;;;13.79;51.72;101358.41;4992191;28;20030;-84
2021/03/23 11:05:50;;;;;;;15.35;8.45;;;;;;;14.09;51.11;101352.00;4991358;28;20022;-84
2021/03/23 11:08:17;;;;;;;9.45;8.13;;;;;;;14.02;51.75;101345.44;4992847;28;20381;-85
2021/03/23 11:10:44;;;;;;;17.20;10.75;;;;;;;13.97;52.38;101351.03;4999608;28;20436;-85
2021/03/23 11:13:14;;;;;;;16.05;10.43;;;;;;;14.22;52.22;101344.94;4991951;28;20026;-84
2021/03/23 11:15:44;;;;;;;16.73;11.27;;;;;;;14.01;52.89;101335.84;4991819;28;20029;-91
2021/03/23 11:18:31;;;;;;;18.48;12.35;;;;;;;13.88;54.35;101341.97;4992641;28;20096;-90
2021/03/23 11:20:59;;;;;;;18.23;11.13;;;;;;;14.58;53.19;101338.09;4990608;28;20109;-89
2021/03/23 11:23:31;;;;;;;14.18;11.13;;;;;;;14.87;52.50;101343.16;4993399;28;20030;-89
2021/03/23 11:25:57;;;;;;;;;;;;;;;14.83;51.90;101339.88;4998524;28;20388;-89
2021/03/23 11:28:23;;;;;;;13.43;10.55;;;;;;;14.97;51.37;101327.44;4999838;28;19922;-89
2021/03/23 11:30:49;;;;;;;16.30;11.63;;;;;;;14.82;51.93;101332.03;4990538;28;20026;-90
2021/03/23 11:33:15;;;;;;;13.60;11.63;;;;;;;14.25;53.54;101333.31;4990869;28;20026;-89
2021/03/23 11:35:45;;;;;;;14.48;10.23;;;;;;;14.91;51.42;101326.09;4996769;28;20030;-89
2021/03/23 11:38:11;;;;;;;15.32;10.57;;;;;;;15.34;49.73;101333.53;4992134;28;20477;-91
2021/03/23 11:40:36;;;;;;;17.42;11.20;;;;;;;14.93;50.59;101339.19;4996939;28;20041;-90
2021/03/23 11:43:02;;;;;;;13.88;10.98;;;;;;;14.47;51.95;101330.91;4998320;28;20054;-89
2021/03/23 11:45:43;;;;;;;12.23;9.20;;;;;;;14.47;50.95;101332.69;5001726;28;20082;-92
2021/03/23 11:48:12;;;;;;;13.87;10.07;;;;;;;14.54;52.69;101333.13;4998187;28;20033;-86
2021/03/23 11:50:40;;;;;;;11.43;9.90;;;;;;;14.58;51.39;101330.16;5006142;28;20129;-86
2021/03/23 11:53:06;;;;;;;15.30;9.80;;;;;;;14.53;51.24;101329.59;4995614;28;20430;-86
2021/03/23 11:55:38;;;;;;;18.15;10.07;;;;;;;14.35;52.58;101323.81;5007711;22;20367;-91